Аэропорт
Душанбе (UTDD)

 UTDD / DYU
ЗЦ Центральная Азия
Душанбе (UTDD)
Душанбе (UTDD)
 38.54330, 68.82500  / 2575 ft

 UTDD 150930Z 20003MPS 160V240 9999 NSC 37/07 Q1005 R09/D NOSIG RMK QFE686/0915
 TAF UTDD 150600Z 1507/1519 VRB02MPS 6000 FEW066CB SCT100 TEMPO 1509/1517 27006MPS
UTDD charts
показать схемы
Название сценария Тип сценария Flight Simulator 9 Flight Simulator X Prepar3D v2 Prepar3D v3 Prepar3D v4 Prepar3D v5 xPlane
Recommended scenery for FS9 бесплатный
Recommended scenery for FSX бесплатный
Recommended scenery for xPlane бесплатный


2020 © VATRUS division (Privacy Policy)